AUS weather

Austin Bergstrom International Airport
Austin, Texas, United States

Public forecast

Using degrees Fahrenheit for public forecast. Weather courtesy of forecast.io.

Current aviation weather report (METAR) for Austin Bergstrom International Airport

Retrieved 2020/02/26 21:53 UTC (49 minutes ago):

KAUS 262153Z 35013G27KT 10SM FEW060 12/M05 A3038 RMK AO2 PK WND 36030/2100 SLP290 T01171050

Aviation forecast (TAF) for Austin Bergstrom International Airport

Retrieved 2020/02/26 18:30 UTC (4 hours ago):

TAF KAUS 261727Z 2618/2724 34017G30KT P6SM SCT050 FM270000 35006KT P6SM SKC FM271800 21007KT P6SM SKC